Latest Weather Observations for Sydney Harbour

IDN60901

Issued at 12:31 pm EDT Wednesday 16 January 2019 (issued every 10 minutes, with the page automatically refreshed every 10 minutes)

About weather observations | Map of Sydney area stations | Latest observations for Sydney area | Other Formats
Station Details ID: 066196 Name: WEDDING CAKE WEST Lat: -33.84 Lon: 151.26 Height: 6.0 m
Data from the previous 72 hours. | See also: Recent months at Sydney Harbour
Date/Time
EDT
Temp
°C
App
Temp
°C
Dew
Point
°C
Rel
Hum
%
Delta-T
°C
Wind Press
QNH
hPa
Press
MSL
hPa
Rain since
9am
mm
Dir  Spd
km/h
Gust
km/h
Spd
kts
Gust
kts
16/12:30pm 23.7 - - - - NNE 15 17 8 9 - - -
16/12:00pm 24.3 - - - - NNE 15 17 8 9 - - -
16/11:30am 25.2 - - - - NNE 13 15 7 8 - - -
16/11:00am 25.2 - - - - NNE 11 11 6 6 - - -
16/10:30am 24.3 - - - - NNE 13 15 7 8 - - -
16/10:00am 24.2 - - - - NNE 11 13 6 7 - - -
16/09:30am 25.1 - - - - NNE 7 9 4 5 - - -
16/09:00am 24.0 - - - - CALM 0 0 0 0 - - -
16/08:30am 22.7 - - - - CALM 0 0 0 0 - - -
16/08:00am 22.4 - - - - CALM 0 0 0 0 - - -
16/07:30am 22.5 - - - - CALM 0 0 0 0 - - -
16/07:00am 22.2 - - - - NNE 2 6 1 3 - - -
16/06:30am 22.0 - - - - NNE 7 9 4 5 - - -
16/06:00am 22.1 - - - - NNE 11 15 6 8 - - -
16/05:30am 22.3 - - - - NNE 13 17 7 9 - - -
16/05:00am 22.3 - - - - N 17 20 9 11 - - -
16/04:30am 22.2 - - - - NNE 17 20 9 11 - - -
16/04:00am 22.2 - - - - NNE 17 20 9 11 - - -
16/03:30am 22.2 - - - - NNE 20 24 11 13 - - -
16/03:00am 22.3 - - - - NNE 24 30 13 16 - - -
16/02:30am 22.3 - - - - NNE 22 26 12 14 - - -
16/02:00am 22.3 - - - - NNE 24 28 13 15 - - -
16/01:30am 22.5 - - - - NNE 24 28 13 15 - - -
16/01:00am 23.0 - - - - NNE 28 32 15 17 - - -
16/12:30am 22.8 - - - - NNE 28 32 15 17 - - -
16/12:00am 23.1 - - - - NNE 24 32 13 17 - - -
 
Date/Time
EDT
Temp
°C
App
Temp
°C
Dew
Point
°C
Rel
Hum
%
Delta-T
°C
Wind Press
QNH
hPa
Press
MSL
hPa
Rain since
9am
mm
Dir  Spd
km/h
Gust
km/h
Spd
kts
Gust
kts
15/11:30pm 23.1 - - - - NNE 26 32 14 17 - - -
15/11:00pm 23.2 - - - - NNE 22 28 12 15 - - -
15/10:30pm 23.1 - - - - NNE 22 26 12 14 - - -
15/10:00pm 23.4 - - - - NNE 28 39 15 21 - - -
15/09:30pm 23.5 - - - - NNE 35 44 19 24 - - -
15/09:00pm 23.5 - - - - NNE 41 48 22 26 - - -
15/08:30pm 23.5 - - - - NNE 43 52 23 28 - - -
15/08:00pm 23.5 - - - - NNE 43 50 23 27 - - -
15/07:30pm 23.6 - - - - NNE 44 54 24 29 - - -
15/07:00pm 23.7 - - - - NNE 43 50 23 27 - - -
15/06:30pm 23.9 - - - - NNE 39 46 21 25 - - -
15/06:00pm 23.8 - - - - NNE 41 48 22 26 - - -
15/05:30pm 23.8 - - - - NNE 39 48 21 26 - - -
15/05:00pm 23.8 - - - - NNE 41 50 22 27 - - -
15/04:30pm 23.8 - - - - NNE 43 54 23 29 - - -
15/04:00pm 23.9 - - - - NNE 44 56 24 30 - - -
15/03:30pm 23.9 - - - - NNE 33 43 18 23 - - -
15/03:00pm 23.9 - - - - NNE 33 39 18 21 - - -
15/02:30pm 24.0 - - - - NNE 33 39 18 21 - - -
15/02:00pm 24.0 - - - - NNE 33 39 18 21 - - -
15/01:30pm 24.0 - - - - NNE 32 37 17 20 - - -
15/01:00pm 23.9 - - - - NNE 32 37 17 20 - - -
15/12:30pm 24.0 - - - - NNE 32 35 17 19 - - -
15/12:00pm 23.8 - - - - NNE 32 37 17 20 - - -
15/11:30am 23.6 - - - - NNE 32 35 17 19 - - -
15/11:00am 23.6 - - - - NNE 30 35 16 19 - - -
15/10:30am 23.4 - - - - NNE 28 32 15 17 - - -
15/10:00am 23.2 - - - - NNE 26 32 14 17 - - -
15/09:30am 22.9 - - - - NNE 30 35 16 19 - - -
15/09:00am 22.7 - - - - NNE 26 30 14 16 - - -
15/08:30am 22.7 - - - - NNE 22 28 12 15 - - -
15/08:00am 22.8 - - - - NNE 26 32 14 17 - - -
15/07:30am 22.8 - - - - N 20 28 11 15 - - -
15/07:00am 22.7 - - - - N 20 26 11 14 - - -
15/06:30am 22.5 - - - - NNE 22 28 12 15 - - -
15/06:00am 22.6 - - - - NNE 19 24 10 13 - - -
15/05:30am 22.5 - - - - NNE 17 20 9 11 - - -
15/05:00am 22.6 - - - - NNE 17 20 9 11 - - -
15/04:30am 22.6 - - - - NNE 19 26 10 14 - - -
15/04:00am 22.6 - - - - NNE 20 26 11 14 - - -
15/03:30am 22.7 - - - - NNE 20 26 11 14 - - -
15/03:00am 22.7 - - - - NNE 22 28 12 15 - - -
15/02:30am 22.9 - - - - NNE 20 24 11 13 - - -
15/02:00am 22.9 - - - - NE 17 20 9 11 - - -
15/01:30am 22.9 - - - - NNE 19 22 10 12 - - -
15/01:00am 23.0 - - - - NNE 19 24 10 13 - - -
15/12:30am 23.1 - - - - NNE 22 28 12 15 - - -
15/12:00am 23.2 - - - - NNE 26 33 14 18 - - -
 
Date/Time
EDT
Temp
°C
App
Temp
°C
Dew
Point
°C
Rel
Hum
%
Delta-T
°C
Wind Press
QNH
hPa
Press
MSL
hPa
Rain since
9am
mm
Dir  Spd
km/h
Gust
km/h
Spd
kts
Gust
kts
14/11:30pm 23.2 - - - - NNE 26 32 14 17 - - -
14/11:00pm 23.3 - - - - NNE 26 33 14 18 - - -
14/10:30pm 23.4 - - - - NE 30 35 16 19 - - -
14/10:00pm 23.4 - - - - NNE 28 35 15 19 - - -
14/09:30pm 23.5 - - - - NNE 30 39 16 21 - - -
14/09:00pm 23.5 - - - - NNE 32 41 17 22 - - -
14/08:30pm 23.5 - - - - NNE 30 37 16 20 - - -
14/08:00pm 23.6 - - - - NNE 32 39 17 21 - - -
14/07:30pm 23.6 - - - - NNE 30 35 16 19 - - -
14/07:00pm 23.7 - - - - NNE 33 41 18 22 - - -
14/06:30pm 23.8 - - - - NNE 33 46 18 25 - - -
14/06:00pm 23.8 - - - - NNE 33 39 18 21 - - -
14/05:30pm 23.7 - - - - NNE 39 46 21 25 - - -
14/05:00pm 23.9 - - - - NNE 37 44 20 24 - - -
14/04:30pm 24.1 - - - - NNE 35 43 19 23 - - -
14/04:00pm 24.1 - - - - NNE 37 48 20 26 - - -
14/03:30pm 24.1 - - - - NE 28 35 15 19 - - -
14/03:00pm 23.9 - - - - NE 28 35 15 19 - - -
14/02:30pm 23.9 - - - - ENE 28 33 15 18 - - -
14/02:00pm 23.9 - - - - NE 30 33 16 18 - - -
14/01:30pm 23.8 - - - - ENE 28 33 15 18 - - -
14/01:00pm 23.7 - - - - ENE 24 28 13 15 - - -
14/12:30pm 23.5 - - - - ENE 24 28 13 15 - - -
14/12:00pm 23.6 - - - - ENE 22 26 12 14 - - -
14/11:30am 23.7 - - - - ENE 22 26 12 14 - - -
14/11:00am 24.3 - - - - S 13 15 7 8 - - -
14/10:30am 24.8 - - - - S 13 13 7 7 - - -
14/10:00am 25.4 - - - - S 6 7 3 4 - - -
14/09:30am 23.4 - - - - S 11 13 6 7 - - -
14/09:00am 23.2 - - - - CALM 0 0 0 0 - - -
14/08:30am 23.2 - - - - CALM 0 0 0 0 - - -
14/08:00am 22.4 - - - - S 6 6 3 3 - - -
14/07:30am 21.9 - - - - S 6 7 3 4 - - -
14/07:00am 21.7 - - - - S 6 9 3 5 - - -
14/06:30am 21.8 - - - - S 6 7 3 4 - - -
14/06:00am 21.8 - - - - S 11 11 6 6 - - -
14/05:30am 21.9 - - - - S 9 11 5 6 - - -
14/05:00am 21.8 - - - - S 7 9 4 5 - - -
14/04:30am 21.8 - - - - S 9 11 5 6 - - -
14/04:00am 21.8 - - - - S 9 11 5 6 - - -
14/03:30am 21.6 - - - - S 11 15 6 8 - - -
14/03:00am 21.8 - - - - S 9 13 5 7 - - -
14/02:30am 21.8 - - - - S 9 13 5 7 - - -
14/02:00am 21.9 - - - - S 11 13 6 7 - - -
14/01:30am 21.9 - - - - S 13 17 7 9 - - -
14/01:00am 21.9 - - - - S 13 17 7 9 - - -
14/12:30am 21.9 - - - - S 17 20 9 11 - - -
14/12:00am 22.0 - - - - S 11 13 6 7 - - -
 
Date/Time
EDT
Temp
°C
App
Temp
°C
Dew
Point
°C
Rel
Hum
%
Delta-T
°C
Wind Press
QNH
hPa
Press
MSL
hPa
Rain since
9am
mm
Dir  Spd
km/h
Gust
km/h
Spd
kts
Gust
kts
13/11:30pm 22.1 - - - - S 11 15 6 8 - - -
13/11:00pm 22.1 - - - - S 15 19 8 10 - - -
13/10:30pm 22.1 - - - - S 17 20 9 11 - - -
13/10:00pm 22.2 - - - - S 17 20 9 11 - - -
13/09:30pm 22.2 - - - - S 15 17 8 9 - - -
13/09:00pm 22.2 - - - - S 15 19 8 10 - - -
13/08:30pm 22.3 - - - - S 19 22 10 12 - - -
13/08:00pm 22.4 - - - - S 19 24 10 13 - - -
13/07:30pm 22.4 - - - - S 24 30 13 16 - - -
13/07:00pm 22.5 - - - - S 22 30 12 16 - - -
13/06:30pm 22.6 - - - - S 22 30 12 16 - - -
13/06:00pm 22.5 - - - - S 30 39 16 21 - - -
13/05:30pm 22.8 - - - - S 28 35 15 19 - - -
13/05:00pm 23.4 - - - - SSE 32 41 17 22 - - -
13/04:30pm 23.6 - - - - SSE 33 41 18 22 - - -
13/04:00pm 23.6 - - - - S 32 41 17 22 - - -
13/03:30pm 23.4 - - - - S 30 35 16 19 - - -
13/03:00pm 23.7 - - - - S 32 37 17 20 - - -
13/02:30pm 23.6 - - - - SSE 30 39 16 21 - - -
13/02:00pm 23.6 - - - - S 30 39 16 21 - - -
13/01:30pm 23.5 - - - - S 30 35 16 19 - - -
13/01:00pm 23.1 - - - - S 33 43 18 23 - - -

Latest Capital City Observations: Canberra | Sydney | Melbourne | Brisbane | Adelaide | Perth | Hobart | Darwin

Other Formats:

Comma delimited format used in spreadsheet applications
http://www.bom.gov.au/fwo/IDN60901/IDN60901.95766.axf

JavaScript Object Notation format (JSON) in row-major order
http://www.bom.gov.au/fwo/IDN60901/IDN60901.95766.json